createdAt,value
2022-11-16T00:01:37.040Z,100145.43
2022-11-16T00:06:37.180Z,100152.36
2022-11-16T00:11:37.788Z,100155.22
2022-11-16T00:16:36.881Z,100149.34
2022-11-16T00:21:37.544Z,100141.94
2022-11-16T00:26:37.253Z,100137.11
2022-11-16T00:31:36.970Z,100139.75
2022-11-16T00:36:36.841Z,100136.86
2022-11-16T00:41:37.228Z,100140.72
2022-11-16T00:46:37.823Z,100132.28
2022-11-16T00:51:37.229Z,100132.0
2022-11-16T00:56:37.561Z,100130.24
2022-11-16T01:01:37.136Z,100131.59000000001
2022-11-16T01:06:37.054Z,100125.47
2022-11-16T01:11:47.199Z,100112.48000000001
2022-11-16T01:16:37.190Z,100115.04
2022-11-16T01:21:36.961Z,100110.40000000001
2022-11-16T01:26:37.383Z,100104.28
2022-11-16T01:31:37.051Z,100111.31
2022-11-16T01:36:36.862Z,100109.78
2022-11-16T01:41:37.224Z,100098.03
2022-11-16T01:46:36.828Z,100091.86
2022-11-16T01:51:39.038Z,100084.74
2022-11-16T01:56:38.665Z,100075.12000000001
2022-11-16T02:01:36.955Z,100065.06000000001
2022-11-16T02:06:49.032Z,100066.04999999999
2022-11-16T02:11:50.034Z,100065.26
2022-11-16T02:16:49.636Z,100060.89
2022-11-16T02:21:41.954Z,100068.19
2022-11-16T02:26:50.391Z,100059.24
2022-11-16T02:31:41.208Z,100057.09000000001
2022-11-16T02:36:39.125Z,100056.0
2022-11-16T02:41:41.427Z,100047.75
2022-11-16T02:46:40.842Z,100044.94
2022-11-16T02:51:39.169Z,100037.01999999999
2022-11-16T02:56:47.426Z,100042.76999999999
2022-11-16T03:01:42.531Z,100030.81
2022-11-16T03:06:40.571Z,100032.75
2022-11-16T03:11:52.699Z,100026.45
2022-11-16T03:16:42.712Z,100027.62
2022-11-16T03:21:40.363Z,100022.79999999999
2022-11-16T03:26:47.025Z,100021.2
2022-11-16T03:31:44.078Z,100022.42
2022-11-16T03:36:41.185Z,100020.95000000001
2022-11-16T03:41:40.718Z,100006.48
2022-11-16T03:46:37.511Z,100003.12
2022-11-16T03:51:37.225Z,99998.22
2022-11-16T03:56:36.795Z,99996.56
2022-11-16T04:01:40.441Z,99989.92
2022-11-16T04:06:46.572Z,99994.48
2022-11-16T04:11:46.849Z,99992.68
2022-11-16T04:16:46.472Z,99994.26
2022-11-16T04:21:52.780Z,99991.67
2022-11-16T04:26:47.405Z,99986.61
2022-11-16T04:31:46.615Z,99980.22
2022-11-16T04:36:46.554Z,99977.76
2022-11-16T04:41:47.027Z,99982.67
2022-11-16T04:46:47.111Z,99975.67
2022-11-16T04:51:36.546Z,99974.94
2022-11-16T04:56:36.859Z,99968.12999999999
2022-11-16T05:01:46.476Z,99969.70999999999
2022-11-16T05:06:36.529Z,99975.67
2022-11-16T05:11:36.723Z,99979.71
2022-11-16T05:16:36.723Z,99978.02
2022-11-16T05:21:36.597Z,99973.65999999999
2022-11-16T05:26:37.730Z,99974.42
2022-11-16T05:31:40.308Z,99972.17000000001
2022-11-16T05:36:36.538Z,99969.26
2022-11-16T05:41:37.051Z,99972.66
2022-11-16T05:46:36.735Z,99974.33
2022-11-16T05:51:38.629Z,99978.22
2022-11-16T05:56:36.917Z,99980.12999999999
2022-11-16T06:01:36.530Z,99973.73999999999
2022-11-16T06:06:36.839Z,99971.34
2022-11-16T06:11:37.318Z,99963.59
2022-11-16T06:16:36.509Z,99971.47
2022-11-16T06:21:36.531Z,99985.46
2022-11-16T06:26:36.821Z,99987.7
2022-11-16T06:31:36.559Z,99991.16
2022-11-16T06:36:36.840Z,99986.8
2022-11-16T06:41:41.048Z,99985.49
2022-11-16T06:46:36.618Z,99981.84
2022-11-16T06:51:37.001Z,99983.15
2022-11-16T06:56:36.786Z,99976.92
2022-11-16T06:57:34.707Z,99978.65000000001
2022-11-16T07:01:36.564Z,99978.65000000001
2022-11-16T07:06:36.660Z,99981.04
2022-11-16T07:11:36.928Z,99978.99
2022-11-16T07:16:36.615Z,99978.21
2022-11-16T07:21:37.604Z,99974.41
2022-11-16T07:26:36.697Z,99970.09000000001
2022-11-16T07:31:36.497Z,99967.83
2022-11-16T07:36:36.317Z,99965.03
2022-11-16T07:41:37.484Z,99964.04
2022-11-16T07:46:48.130Z,99968.3
2022-11-16T07:51:36.836Z,99961.35
2022-11-16T07:56:36.687Z,99956.44
2022-11-16T08:01:36.491Z,99959.13
2022-11-16T08:06:36.305Z,99955.78
2022-11-16T08:11:37.089Z,99948.53
2022-11-16T08:16:36.459Z,99949.68000000001
2022-11-16T08:21:36.414Z,99940.94
2022-11-16T08:26:36.628Z,99938.12000000001
2022-11-16T08:31:37.225Z,99946.31000000001
2022-11-16T08:36:36.397Z,99950.23
2022-11-16T08:41:36.776Z,99953.03
2022-11-16T08:46:37.094Z,99947.5
2022-11-16T08:51:36.328Z,99947.79999999999
2022-11-16T08:56:36.635Z,99957.86
2022-11-16T09:01:36.598Z,99958.58
2022-11-16T09:06:36.470Z,99949.23999999999
2022-11-16T09:11:37.117Z,99947.92
2022-11-16T09:16:36.634Z,99950.2
2022-11-16T09:21:36.646Z,99950.28
2022-11-16T09:26:36.535Z,99954.03
2022-11-16T09:31:36.546Z,99950.23
2022-11-16T09:36:36.274Z,99943.22
2022-11-16T09:41:46.478Z,99939.12
2022-11-16T09:46:40.492Z,99930.98999999999
2022-11-16T09:51:38.982Z,99931.44
2022-11-16T09:56:39.721Z,99930.69
2022-11-16T10:01:42.057Z,99920.72
2022-11-16T10:06:43.674Z,99918.61
2022-11-16T10:11:47.610Z,99909.83
2022-11-16T10:16:45.056Z,99912.34
2022-11-16T10:21:46.696Z,99903.33
2022-11-16T10:26:44.278Z,99900.65
2022-11-16T10:31:50.729Z,99892.86
2022-11-16T10:36:37.514Z,99889.84
2022-11-16T10:41:40.216Z,99885.91
2022-11-16T10:46:43.700Z,99876.34000000001
2022-11-16T10:51:36.387Z,99875.69
2022-11-16T10:56:38.685Z,99877.01
2022-11-16T11:01:38.090Z,99882.03
2022-11-16T11:06:38.167Z,99879.08
2022-11-16T11:11:46.323Z,99876.11
2022-11-16T11:16:37.168Z,99882.48
2022-11-16T11:21:36.278Z,99881.2
2022-11-16T11:26:39.285Z,99878.36
2022-11-16T11:31:42.867Z,99881.5
2022-11-16T11:36:39.603Z,99882.26
2022-11-16T11:41:38.755Z,99883.08
2022-11-16T11:47:06.439Z,99882.62
2022-11-16T11:51:41.279Z,99887.01
2022-11-16T11:56:36.258Z,99884.72
2022-11-16T12:01:48.927Z,99878.97
2022-11-16T12:06:43.958Z,99883.0
2022-11-16T12:11:49.394Z,99879.78
2022-11-16T12:16:43.450Z,99889.15
2022-11-16T12:21:46.126Z,99896.32
2022-11-16T12:26:45.175Z,99899.08
2022-11-16T12:31:47.900Z,99898.36
2022-11-16T12:36:46.153Z,99904.74
2022-11-16T12:41:52.296Z,99908.65
2022-11-16T12:46:49.935Z,99918.3
2022-11-16T12:51:43.554Z,99913.87
2022-11-16T12:56:49.156Z,99911.25
2022-11-16T13:01:42.490Z,99907.67
2022-11-16T13:06:41.119Z,99905.72
2022-11-16T13:11:39.300Z,99914.76
2022-11-16T13:16:36.193Z,99907.92
2022-11-16T13:21:46.629Z,99920.87
2022-11-16T13:26:43.143Z,99925.62000000001
2022-11-16T13:31:41.787Z,99925.7
2022-11-16T13:36:44.092Z,99927.61
2022-11-16T13:41:38.295Z,99926.25
2022-11-16T13:46:55.197Z,99929.04
2022-11-16T13:51:36.088Z,99930.58
2022-11-16T13:56:46.656Z,99927.42
2022-11-16T14:01:53.644Z,99934.72
2022-11-16T14:06:55.962Z,99934.41
2022-11-16T14:11:38.159Z,99934.97
2022-11-16T14:16:44.731Z,99932.4
2022-11-16T14:21:46.855Z,99938.87
2022-11-16T14:26:44.075Z,99938.9
2022-11-16T14:31:48.146Z,99938.31
2022-11-16T14:36:40.666Z,99936.65
2022-11-16T14:41:36.398Z,99937.23
2022-11-16T14:46:37.591Z,99938.56
2022-11-16T14:51:40.662Z,99939.29000000001
2022-11-16T14:56:36.558Z,99937.05
2022-11-16T15:01:39.058Z,99936.13
2022-11-16T15:06:41.370Z,99935.6
2022-11-16T15:11:48.836Z,99935.39
2022-11-16T15:16:50.255Z,99924.27
2022-11-16T15:21:35.965Z,99924.3
2022-11-16T15:26:37.628Z,99928.5
2022-11-16T15:31:36.313Z,99925.81
2022-11-16T15:36:39.217Z,99926.48000000001
2022-11-16T15:41:37.700Z,99927.8
2022-11-16T15:46:36.286Z,99930.62999999999
2022-11-16T15:51:42.118Z,99928.77
2022-11-16T15:56:36.879Z,99930.68
2022-11-16T16:01:41.071Z,99933.31
2022-11-16T16:06:47.280Z,99928.9
2022-11-16T16:11:35.913Z,99931.34
2022-11-16T16:16:36.777Z,99929.47
2022-11-16T16:21:42.185Z,99933.28
2022-11-16T16:26:35.937Z,99927.66
2022-11-16T16:31:35.937Z,99925.08
2022-11-16T16:36:36.353Z,99933.7
2022-11-16T16:41:35.954Z,99930.98
2022-11-16T16:46:35.914Z,99942.52
2022-11-16T16:51:36.179Z,99932.93
2022-11-16T16:56:35.911Z,99937.27
2022-11-16T17:01:35.957Z,99954.81
2022-11-16T17:06:36.499Z,99947.22
2022-11-16T17:11:36.000Z,99950.67
2022-11-16T17:16:36.100Z,99945.22
2022-11-16T17:21:36.358Z,99948.55
2022-11-16T17:26:35.885Z,99954.3
2022-11-16T17:31:35.929Z,99954.39
2022-11-16T17:36:36.078Z,99964.47
2022-11-16T17:41:36.438Z,99958.56
2022-11-16T17:46:35.983Z,99955.64
2022-11-16T17:51:36.135Z,99956.55
2022-11-16T17:56:36.695Z,99959.93999999999
2022-11-16T18:01:36.035Z,99957.28
2022-11-16T18:06:36.698Z,99958.4
2022-11-16T18:11:38.016Z,99953.54999999999
2022-11-16T18:16:40.088Z,99955.89
2022-11-16T18:21:38.513Z,99953.66
2022-11-16T18:26:36.462Z,99949.3
2022-11-16T18:31:36.211Z,99957.2
2022-11-16T18:36:35.856Z,99954.8
2022-11-16T18:41:35.944Z,99958.12
2022-11-16T18:46:36.451Z,99955.93000000001
2022-11-16T18:51:35.877Z,99959.83
2022-11-16T18:56:35.848Z,99959.58
2022-11-16T19:01:36.137Z,99954.4
2022-11-16T19:06:35.806Z,99955.88
2022-11-16T19:11:36.037Z,99953.58
2022-11-16T19:16:36.264Z,99954.18
2022-11-16T19:21:35.881Z,99958.34
2022-11-16T19:26:35.801Z,99958.26
2022-11-16T19:31:35.967Z,99965.31999999999
2022-11-16T19:36:36.485Z,99966.04999999999
2022-11-16T19:41:35.834Z,99965.09999999999
2022-11-16T19:46:36.450Z,99960.85
2022-11-16T19:51:35.892Z,99960.31
2022-11-16T19:56:35.922Z,99966.44
2022-11-16T20:01:36.300Z,99964.73
2022-11-16T20:06:37.634Z,99970.43
2022-11-16T20:11:39.132Z,99970.11
2022-11-16T20:16:39.086Z,99972.83
2022-11-16T20:21:37.852Z,99981.11
2022-11-16T20:26:39.721Z,99979.90999999999
2022-11-16T20:31:37.435Z,99983.09000000001
2022-11-16T20:36:35.941Z,99986.37999999999
2022-11-16T20:41:35.700Z,99973.53
2022-11-16T20:46:37.686Z,99972.43999999999
2022-11-16T20:51:36.046Z,99968.25
2022-11-16T20:56:35.748Z,99971.97
2022-11-16T21:01:36.052Z,99966.42
2022-11-16T21:06:35.967Z,99971.42
2022-11-16T21:11:45.537Z,99973.41
2022-11-16T21:16:36.511Z,99977.98
2022-11-16T21:21:37.144Z,99969.56
2022-11-16T21:26:36.265Z,99974.57
2022-11-16T21:31:36.186Z,99974.84
2022-11-16T21:36:35.765Z,99972.83
2022-11-16T21:41:35.749Z,99964.47
2022-11-16T21:46:36.140Z,99966.6
2022-11-16T21:51:35.804Z,99967.19
2022-11-16T21:56:35.758Z,99958.26
2022-11-16T22:01:45.932Z,99960.28
2022-11-16T22:06:45.471Z,99950.85
2022-11-16T22:11:35.708Z,99951.61
2022-11-16T22:16:35.945Z,99955.74
2022-11-16T22:21:35.645Z,99956.87000000001
2022-11-16T22:26:37.160Z,99955.28
2022-11-16T22:31:35.874Z,99963.37
2022-11-16T22:36:35.758Z,99960.41
2022-11-16T22:41:35.648Z,99960.91
2022-11-16T22:46:36.146Z,99968.62999999999
2022-11-16T22:51:35.608Z,99961.44
2022-11-16T22:56:35.638Z,99958.25
2022-11-16T23:01:36.864Z,99953.91
2022-11-16T23:06:35.822Z,99952.61
2022-11-16T23:11:45.537Z,99950.09
2022-11-16T23:16:36.586Z,99952.44
2022-11-16T23:21:45.431Z,99949.75
2022-11-16T23:26:45.473Z,99951.81
2022-11-16T23:31:35.748Z,99958.26
2022-11-16T23:36:35.668Z,99963.76000000001
2022-11-16T23:41:45.453Z,99956.81
2022-11-16T23:46:35.734Z,99950.78
2022-11-16T23:51:35.646Z,99956.61
2022-11-16T23:56:35.937Z,99952.81
